Terminal Aerodrome Forecast
Issued by NWS

Current Version | Previous Version | Text Only | Print | Product List | Glossary Off
Versions: 1 2 3 4 5 6 7 8 9 10 11 12 13 14 15 16 17 18 19 20 21 22 23 24

000
FTUS41 KRLX 300538
TAFCKB
TAF
KCKB 300538Z 3006/3106 00000KT 6SM BR SCT100
     FM300800 00000KT 2SM BR SCT002
     FM301200 20004KT P6SM SCT060
     FM301500 21007KT P6SM BKN070
     FM301800 21006KT P6SM VCTS BKN035CB
     FM302300 VRB03KT P6SM BKN045
     FM310200 15004KT P6SM SCT070=

USA.gov is the U.S. government's official web portal to all federal, state and local government web resources and services.